createdAt,value
2017-04-10T00:00:12.419Z,21.56
2017-04-10T00:00:40.884Z,21.56
2017-04-10T00:01:09.155Z,21.59
2017-04-10T00:01:37.538Z,21.64
2017-04-10T00:02:05.710Z,21.59
2017-04-10T00:02:33.988Z,21.61
2017-04-10T00:03:02.219Z,21.67
2017-04-10T00:03:30.598Z,21.66
2017-04-10T00:03:58.833Z,21.58
2017-04-10T00:04:27.004Z,21.64
2017-04-10T00:04:55.120Z,21.53
2017-04-10T00:05:23.166Z,21.64
2017-04-10T00:05:51.408Z,21.56
2017-04-10T00:06:19.799Z,21.59
2017-04-10T00:06:48.108Z,21.56
2017-04-10T00:07:16.199Z,21.52
2017-04-10T00:07:44.283Z,21.51
2017-04-10T00:08:12.549Z,21.45
2017-04-10T00:08:40.887Z,21.46
2017-04-10T00:09:09.071Z,21.48
2017-04-10T00:09:37.287Z,21.43
2017-04-10T00:10:05.410Z,21.48
2017-04-10T00:10:34.520Z,21.38
2017-04-10T00:11:02.854Z,21.4
2017-04-10T00:11:31.117Z,21.51
2017-04-10T00:11:59.423Z,21.4
2017-04-10T00:12:27.941Z,21.41
2017-04-10T00:12:56.410Z,21.45
2017-04-10T00:13:24.923Z,21.4
2017-04-10T00:13:53.137Z,21.36
2017-04-10T00:14:21.497Z,21.33
2017-04-10T00:14:49.695Z,21.38
2017-04-10T00:15:18.039Z,21.38
2017-04-10T00:15:46.527Z,21.43
2017-04-10T00:16:14.838Z,21.3
2017-04-10T00:16:43.237Z,21.34
2017-04-10T00:17:11.495Z,21.38
2017-04-10T00:17:39.602Z,21.36
2017-04-10T00:18:07.710Z,21.3
2017-04-10T00:18:35.927Z,21.36
2017-04-10T00:19:04.355Z,21.28
2017-04-10T00:19:32.656Z,21.36
2017-04-10T00:20:01.030Z,21.3
2017-04-10T00:20:29.188Z,21.38
2017-04-10T00:20:57.424Z,21.3
2017-04-10T00:21:25.682Z,21.3
2017-04-10T00:21:53.735Z,21.3
2017-04-10T00:22:22.218Z,21.33
2017-04-10T00:22:50.532Z,21.33
2017-04-10T00:23:18.966Z,21.28
2017-04-10T00:23:47.414Z,21.25
2017-04-10T00:24:15.899Z,21.31
2017-04-10T00:24:43.851Z,21.43
2017-04-10T00:25:12.135Z,21.27
2017-04-10T00:25:40.492Z,21.3
2017-04-10T00:26:08.834Z,21.3
2017-04-10T00:26:36.951Z,21.25
2017-04-10T00:27:05.337Z,21.28
2017-04-10T00:27:33.515Z,21.38
2017-04-10T00:28:01.793Z,21.38
2017-04-10T00:28:30.080Z,21.28
2017-04-10T00:28:58.402Z,21.36
2017-04-10T00:29:26.751Z,21.4
2017-04-10T00:29:55.127Z,21.43
2017-04-10T00:30:23.488Z,21.37
2017-04-10T00:30:51.715Z,21.4
2017-04-10T00:31:19.989Z,21.34
2017-04-10T00:31:48.335Z,21.38
2017-04-10T00:32:16.813Z,21.38
2017-04-10T00:32:45.147Z,21.45
2017-04-10T00:33:13.371Z,21.4
2017-04-10T00:33:42.074Z,21.45
2017-04-10T00:34:10.470Z,21.38
2017-04-10T00:34:38.826Z,21.4
2017-04-10T00:35:07.077Z,21.41
2017-04-10T00:35:35.288Z,21.33
2017-04-10T00:36:03.641Z,21.41
2017-04-10T00:36:31.866Z,21.38
2017-04-10T00:37:00.219Z,21.38
2017-04-10T00:37:28.560Z,21.4
2017-04-10T00:37:56.723Z,21.45
2017-04-10T00:38:24.740Z,21.4
2017-04-10T00:38:52.892Z,21.4
2017-04-10T00:39:21.098Z,21.43
2017-04-10T00:39:49.368Z,21.43
2017-04-10T00:40:17.785Z,21.4
2017-04-10T00:40:46.218Z,21.4
2017-04-10T00:41:14.359Z,21.49
2017-04-10T00:41:42.651Z,21.46
2017-04-10T00:42:11.215Z,21.45
2017-04-10T00:42:39.335Z,21.4
2017-04-10T00:43:07.586Z,21.4
2017-04-10T00:43:35.656Z,21.41
2017-04-10T00:44:03.882Z,21.41
2017-04-10T00:44:32.409Z,21.48
2017-04-10T00:45:00.507Z,21.43
2017-04-10T00:45:28.721Z,21.43
2017-04-10T00:45:56.985Z,21.43
2017-04-10T00:46:25.120Z,21.45
2017-04-10T00:46:53.242Z,21.38
2017-04-10T00:47:21.394Z,21.37
2017-04-10T00:47:49.899Z,21.51
2017-04-10T00:48:18.153Z,21.37
2017-04-10T00:48:46.569Z,21.37
2017-04-10T00:49:14.667Z,21.38
2017-04-10T00:49:42.765Z,21.38
2017-04-10T00:50:11.167Z,21.31
2017-04-10T00:50:39.586Z,21.38
2017-04-10T00:51:07.833Z,21.31
2017-04-10T00:51:36.021Z,21.27
2017-04-10T00:52:04.500Z,21.33
2017-04-10T00:52:33.559Z,21.27
2017-04-10T00:53:01.791Z,21.23
2017-04-10T00:53:30.050Z,21.23
2017-04-10T00:53:58.226Z,21.25
2017-04-10T00:54:26.338Z,21.22
2017-04-10T00:54:54.610Z,21.27
2017-04-10T00:55:22.945Z,21.3
2017-04-10T00:55:51.337Z,21.23
2017-04-10T00:56:19.594Z,21.27
2017-04-10T00:56:48.585Z,21.21
2017-04-10T00:57:16.849Z,21.28
2017-04-10T00:57:44.995Z,21.28
2017-04-10T00:58:13.245Z,21.28
2017-04-10T00:58:41.587Z,21.23
2017-04-10T00:59:09.751Z,21.28
2017-04-10T00:59:38.408Z,21.28
2017-04-10T01:00:06.887Z,21.27
2017-04-10T01:00:35.278Z,21.22
2017-04-10T01:01:03.602Z,21.34
2017-04-10T01:01:31.824Z,21.31
2017-04-10T01:02:00.068Z,21.31
2017-04-10T01:02:28.366Z,21.27
2017-04-10T01:02:56.729Z,21.21
2017-04-10T01:03:25.131Z,21.23
2017-04-10T01:03:53.419Z,21.31
2017-04-10T01:04:21.731Z,21.22
2017-04-10T01:04:49.960Z,21.16
2017-04-10T01:05:18.243Z,21.23
2017-04-10T01:05:46.543Z,21.22
2017-04-10T01:06:14.935Z,21.25
2017-04-10T01:06:43.223Z,21.3
2017-04-10T01:07:11.655Z,21.22
2017-04-10T01:07:40.043Z,21.25
2017-04-10T01:08:08.274Z,21.22
2017-04-10T01:08:36.477Z,21.21
2017-04-10T01:09:04.749Z,21.25
2017-04-10T01:09:33.040Z,21.27
2017-04-10T01:10:01.442Z,21.33
2017-04-10T01:10:29.836Z,21.31
2017-04-10T01:10:58.036Z,21.27
2017-04-10T01:11:26.416Z,21.3
2017-04-10T01:11:54.471Z,21.31
2017-04-10T01:12:22.789Z,21.31
2017-04-10T01:12:51.266Z,21.28
2017-04-10T01:13:19.394Z,21.34
2017-04-10T01:13:47.848Z,21.36
2017-04-10T01:14:16.000Z,21.33
2017-04-10T01:14:44.210Z,21.36
2017-04-10T01:15:12.427Z,21.33
2017-04-10T01:15:40.920Z,21.36
2017-04-10T01:16:09.619Z,21.33
2017-04-10T01:16:37.819Z,21.38
2017-04-10T01:17:06.061Z,21.38
2017-04-10T01:17:34.306Z,21.36
2017-04-10T01:18:02.519Z,21.41
2017-04-10T01:18:31.044Z,21.34
2017-04-10T01:18:59.460Z,21.33
2017-04-10T01:19:27.683Z,21.38
2017-04-10T01:19:55.969Z,21.38
2017-04-10T01:20:24.191Z,21.31
2017-04-10T01:20:52.366Z,21.45
2017-04-10T01:21:20.582Z,21.36
2017-04-10T01:21:49.945Z,21.43
2017-04-10T01:22:18.123Z,21.38
2017-04-10T01:22:46.721Z,21.4
2017-04-10T01:23:15.080Z,21.41
2017-04-10T01:23:43.360Z,21.43
2017-04-10T01:24:11.710Z,21.38
2017-04-10T01:24:39.913Z,21.45
2017-04-10T01:25:08.242Z,21.38
2017-04-10T01:25:36.611Z,21.38
2017-04-10T01:26:05.002Z,21.43
2017-04-10T01:26:33.577Z,21.37
2017-04-10T01:27:01.801Z,21.46
2017-04-10T01:27:30.033Z,21.37
2017-04-10T01:27:58.367Z,21.38
2017-04-10T01:28:26.603Z,21.37
2017-04-10T01:28:54.925Z,21.4
2017-04-10T01:29:23.125Z,21.45
2017-04-10T01:29:51.397Z,21.38
2017-04-10T01:30:20.356Z,21.38
2017-04-10T01:30:48.701Z,21.41
2017-04-10T01:31:16.992Z,21.41
2017-04-10T01:31:45.334Z,21.41
2017-04-10T01:32:13.566Z,21.41
2017-04-10T01:32:41.763Z,21.45
2017-04-10T01:33:10.202Z,21.38
2017-04-10T01:33:38.460Z,21.38
2017-04-10T01:34:06.531Z,21.41
2017-04-10T01:34:34.780Z,21.46
2017-04-10T01:35:02.865Z,21.38
2017-04-10T01:35:31.081Z,21.48
2017-04-10T01:35:59.306Z,21.37
2017-04-10T01:36:27.460Z,21.45
2017-04-10T01:36:55.652Z,21.45
2017-04-10T01:37:23.858Z,21.48
2017-04-10T01:37:52.212Z,21.38
2017-04-10T01:38:20.572Z,21.41
2017-04-10T01:38:48.929Z,21.43
2017-04-10T01:39:17.311Z,21.41
2017-04-10T01:39:45.694Z,21.41
2017-04-10T01:40:13.925Z,21.38
2017-04-10T01:40:42.170Z,21.4
2017-04-10T01:41:10.369Z,21.4
2017-04-10T01:41:38.916Z,21.43
2017-04-10T01:42:07.377Z,21.4
2017-04-10T01:42:35.298Z,21.41
2017-04-10T01:43:03.644Z,21.41
2017-04-10T01:43:31.700Z,21.37
2017-04-10T01:44:00.285Z,21.38
2017-04-10T01:44:28.583Z,21.43
2017-04-10T01:44:56.717Z,21.43
2017-04-10T01:45:25.251Z,21.46
2017-04-10T01:45:53.696Z,21.41
2017-04-10T01:46:21.930Z,21.43
2017-04-10T01:46:50.259Z,21.38
2017-04-10T01:47:18.568Z,21.41
2017-04-10T01:47:46.714Z,21.43
2017-04-10T01:48:14.903Z,21.41
2017-04-10T01:48:43.273Z,21.4
2017-04-10T01:49:11.567Z,21.45
2017-04-10T01:49:39.765Z,21.46
2017-04-10T01:50:08.154Z,21.43
2017-04-10T01:50:36.615Z,21.48
2017-04-10T01:51:04.718Z,21.46
2017-04-10T01:51:33.123Z,21.46
2017-04-10T01:52:01.552Z,21.45
2017-04-10T01:52:29.669Z,21.45
2017-04-10T01:52:57.706Z,21.43
2017-04-10T01:53:25.968Z,21.45
2017-04-10T01:53:54.112Z,21.41
2017-04-10T01:54:22.469Z,21.45
2017-04-10T01:54:50.628Z,21.45
2017-04-10T01:55:18.720Z,21.48
2017-04-10T01:55:46.968Z,21.45
2017-04-10T01:56:15.394Z,21.45
2017-04-10T01:56:43.620Z,21.46
2017-04-10T01:57:11.987Z,21.52
2017-04-10T01:57:40.084Z,21.4
2017-04-10T01:58:08.444Z,21.4
2017-04-10T01:58:36.825Z,21.48
2017-04-10T01:59:05.162Z,21.52
2017-04-10T01:59:33.474Z,21.46
2017-04-10T02:00:01.966Z,21.45
2017-04-10T02:00:30.614Z,21.52
2017-04-10T02:00:59.045Z,21.52
2017-04-10T02:01:27.511Z,21.46
2017-04-10T02:01:55.791Z,21.41
2017-04-10T02:02:24.035Z,21.46
2017-04-10T02:02:52.312Z,21.41
2017-04-10T02:03:20.710Z,21.43
2017-04-10T02:03:49.016Z,21.45
2017-04-10T02:04:17.065Z,21.45
2017-04-10T02:04:45.238Z,21.45
2017-04-10T02:05:13.430Z,21.46
2017-04-10T02:05:41.609Z,21.52
2017-04-10T02:06:09.970Z,21.48
2017-04-10T02:06:38.151Z,21.49
2017-04-10T02:07:06.570Z,21.52
2017-04-10T02:07:34.939Z,21.51
2017-04-10T02:08:03.457Z,21.55
2017-04-10T02:08:31.741Z,21.49
2017-04-10T02:09:00.072Z,21.53
2017-04-10T02:09:28.402Z,21.52
2017-04-10T02:09:56.646Z,21.46
2017-04-10T02:10:24.970Z,21.49
2017-04-10T02:10:54.061Z,21.45
2017-04-10T02:11:22.356Z,21.46
2017-04-10T02:11:50.611Z,21.43
2017-04-10T02:12:18.930Z,21.4
2017-04-10T02:12:47.123Z,21.45
2017-04-10T02:13:15.329Z,21.48
2017-04-10T02:13:43.541Z,21.48
2017-04-10T02:14:11.851Z,21.51
2017-04-10T02:14:40.108Z,21.43
2017-04-10T02:15:08.409Z,21.41
2017-04-10T02:15:36.621Z,21.43
2017-04-10T02:16:04.808Z,21.46
2017-04-10T02:16:33.135Z,21.38
2017-04-10T02:17:02.276Z,21.45
2017-04-10T02:17:30.442Z,21.3
2017-04-10T02:17:58.827Z,21.45
2017-04-10T02:18:27.076Z,21.38
2017-04-10T02:18:55.292Z,21.37
2017-04-10T02:19:23.687Z,21.37
2017-04-10T02:19:51.880Z,21.33
2017-04-10T02:20:20.189Z,21.4
2017-04-10T02:20:48.681Z,21.33
2017-04-10T02:21:17.417Z,21.28
2017-04-10T02:21:46.067Z,21.31
2017-04-10T02:22:14.350Z,21.28
2017-04-10T02:22:42.770Z,21.22
2017-04-10T02:23:11.066Z,21.27
2017-04-10T02:23:39.342Z,21.22
2017-04-10T02:24:07.560Z,21.3
2017-04-10T02:24:36.064Z,21.3
2017-04-10T02:25:04.532Z,21.27
2017-04-10T02:25:33.089Z,21.22
2017-04-10T02:26:01.598Z,21.16
2017-04-10T02:26:29.881Z,21.09
2017-04-10T02:26:58.231Z,21.22
2017-04-10T02:27:26.512Z,21.19
2017-04-10T02:27:54.920Z,21.15
2017-04-10T02:28:23.304Z,21.15
2017-04-10T02:28:51.543Z,21.18
2017-04-10T02:29:20.611Z,21.12
2017-04-10T02:29:49.055Z,21.11
2017-04-10T02:30:17.327Z,21.15
2017-04-10T02:30:45.592Z,21.18
2017-04-10T02:31:13.980Z,21.11
2017-04-10T02:31:42.426Z,21.15
2017-04-10T02:32:10.674Z,21.15
2017-04-10T02:32:38.834Z,21.3
2017-04-10T02:33:07.038Z,21.23
2017-04-10T02:33:35.558Z,21.25
2017-04-10T02:34:03.904Z,21.25
2017-04-10T02:34:32.261Z,21.27
2017-04-10T02:35:00.899Z,21.28
2017-04-10T02:35:29.362Z,21.3
2017-04-10T02:35:57.745Z,21.22
2017-04-10T02:36:26.361Z,21.27
2017-04-10T02:36:54.608Z,21.28
2017-04-10T02:37:22.882Z,21.27
2017-04-10T02:37:51.283Z,21.27
2017-04-10T02:38:19.508Z,21.22
2017-04-10T02:38:47.848Z,21.23
2017-04-10T02:39:16.011Z,21.22
2017-04-10T02:39:44.363Z,21.21
2017-04-10T02:40:12.848Z,21.33
2017-04-10T02:40:41.192Z,21.31
2017-04-10T02:41:09.494Z,21.28
2017-04-10T02:41:37.743Z,21.37
2017-04-10T02:42:06.166Z,21.33
2017-04-10T02:42:34.304Z,21.23
2017-04-10T02:43:02.549Z,21.25
2017-04-10T02:43:30.770Z,21.25
2017-04-10T02:43:59.183Z,21.34
2017-04-10T02:44:27.619Z,21.28
2017-04-10T02:44:56.015Z,21.23
2017-04-10T02:45:24.319Z,21.37
2017-04-10T02:45:52.602Z,21.34
2017-04-10T02:46:21.085Z,21.3
2017-04-10T02:46:49.713Z,21.28
2017-04-10T02:47:18.038Z,21.31
2017-04-10T02:47:46.282Z,21.36
2017-04-10T02:48:14.467Z,21.27
2017-04-10T02:48:42.832Z,21.31
2017-04-10T02:49:11.341Z,21.36
2017-04-10T02:49:39.625Z,21.28
2017-04-10T02:50:07.763Z,21.28
2017-04-10T02:50:35.967Z,21.31
2017-04-10T02:51:04.249Z,21.33
2017-04-10T02:51:32.671Z,21.33
2017-04-10T02:52:00.893Z,21.38
2017-04-10T02:52:29.025Z,21.3
2017-04-10T02:52:57.291Z,21.27
2017-04-10T02:53:25.575Z,21.34
2017-04-10T02:53:53.714Z,21.28
2017-04-10T02:54:21.872Z,21.43
2017-04-10T02:54:50.161Z,21.38
2017-04-10T02:55:19.079Z,21.34
2017-04-10T02:55:47.167Z,21.37
2017-04-10T02:56:15.251Z,21.36
2017-04-10T02:56:43.622Z,21.28
2017-04-10T02:57:11.668Z,21.37
2017-04-10T02:57:39.950Z,21.37
2017-04-10T02:58:08.198Z,21.4
2017-04-10T02:58:36.521Z,21.28
2017-04-10T02:59:04.789Z,21.45
2017-04-10T02:59:33.015Z,21.4
2017-04-10T03:00:01.238Z,21.28
2017-04-10T03:00:29.571Z,21.4
2017-04-10T03:00:58.011Z,21.38
2017-04-10T03:01:26.044Z,21.33
2017-04-10T03:01:54.161Z,21.38
2017-04-10T03:02:22.287Z,21.38
2017-04-10T03:02:50.464Z,21.37
2017-04-10T03:03:18.662Z,21.34
2017-04-10T03:03:46.945Z,21.4
2017-04-10T03:04:15.160Z,21.28
2017-04-10T03:04:43.302Z,21.41
2017-04-10T03:05:11.735Z,21.37
2017-04-10T03:05:39.810Z,21.3
2017-04-10T03:06:08.160Z,21.4
2017-04-10T03:06:36.495Z,21.36
2017-04-10T03:07:04.904Z,21.31
2017-04-10T03:07:33.200Z,21.36
2017-04-10T03:08:01.490Z,21.34
2017-04-10T03:08:29.738Z,21.37
2017-04-10T03:08:57.954Z,21.33
2017-04-10T03:09:26.112Z,21.4
2017-04-10T03:09:54.343Z,21.31
2017-04-10T03:10:22.636Z,21.28
2017-04-10T03:10:50.702Z,21.31
2017-04-10T03:11:18.890Z,21.31
2017-04-10T03:11:47.105Z,21.3
2017-04-10T03:12:15.379Z,21.31
2017-04-10T03:12:43.606Z,21.33
2017-04-10T03:13:11.729Z,21.21
2017-04-10T03:13:39.856Z,21.34
2017-04-10T03:14:08.158Z,21.3
2017-04-10T03:14:36.394Z,21.33
2017-04-10T03:15:04.623Z,21.31
2017-04-10T03:15:32.934Z,21.28
2017-04-10T03:16:01.196Z,21.31
2017-04-10T03:16:29.737Z,21.25
2017-04-10T03:16:58.162Z,21.28
2017-04-10T03:17:26.439Z,21.27
2017-04-10T03:17:54.727Z,21.28
2017-04-10T03:18:22.786Z,21.33
2017-04-10T03:18:50.988Z,21.25
2017-04-10T03:19:19.213Z,21.3
2017-04-10T03:19:47.572Z,21.28
2017-04-10T03:20:15.800Z,21.25
2017-04-10T03:20:43.973Z,21.3
2017-04-10T03:21:12.263Z,21.25
2017-04-10T03:21:40.642Z,21.31
2017-04-10T03:22:08.791Z,21.23
2017-04-10T03:22:37.106Z,21.27
2017-04-10T03:23:05.259Z,21.25
2017-04-10T03:23:33.561Z,21.19
2017-04-10T03:24:01.695Z,21.3
2017-04-10T03:24:29.808Z,21.25
2017-04-10T03:24:57.982Z,21.28
2017-04-10T03:25:26.209Z,21.31
2017-04-10T03:25:54.446Z,21.21
2017-04-10T03:26:22.672Z,21.34
2017-04-10T03:26:51.033Z,21.3
2017-04-10T03:27:19.255Z,21.27
2017-04-10T03:27:47.378Z,21.21
2017-04-10T03:28:15.733Z,21.28
2017-04-10T03:28:43.914Z,21.3
2017-04-10T03:29:12.102Z,21.31
2017-04-10T03:29:40.257Z,21.3
2017-04-10T03:30:08.376Z,21.27
2017-04-10T03:30:36.502Z,21.25
2017-04-10T03:31:04.506Z,21.25
2017-04-10T03:31:32.693Z,21.22
2017-04-10T03:32:00.947Z,21.21
2017-04-10T03:32:29.181Z,21.22
2017-04-10T03:32:57.456Z,21.28
2017-04-10T03:33:25.572Z,21.25
2017-04-10T03:33:53.728Z,21.15
2017-04-10T03:34:21.994Z,21.25
2017-04-10T03:34:50.202Z,21.28
2017-04-10T03:35:19.280Z,21.25
2017-04-10T03:35:47.422Z,21.31
2017-04-10T03:36:15.484Z,21.27
2017-04-10T03:36:43.718Z,21.16
2017-04-10T03:37:11.993Z,21.18
2017-04-10T03:37:40.232Z,21.19
2017-04-10T03:38:09.157Z,21.18
2017-04-10T03:38:37.253Z,21.16
2017-04-10T03:39:05.429Z,21.23
2017-04-10T03:39:33.582Z,21.25
2017-04-10T03:40:01.789Z,21.28
2017-04-10T03:40:30.054Z,21.27
2017-04-10T03:40:58.289Z,21.31
2017-04-10T03:41:26.561Z,21.28
2017-04-10T03:41:55.105Z,21.23
2017-04-10T03:42:23.265Z,21.12
2017-04-10T03:42:51.560Z,21.12
2017-04-10T03:43:19.881Z,21.12
2017-04-10T03:43:48.136Z,21.13
2017-04-10T03:44:16.098Z,21.15
2017-04-10T03:44:44.377Z,21.16
2017-04-10T03:45:12.585Z,21.15
2017-04-10T03:45:40.785Z,21.21
2017-04-10T03:46:09.075Z,21.18
2017-04-10T03:46:37.241Z,21.13
2017-04-10T03:47:05.453Z,21.15
2017-04-10T03:47:33.512Z,21.13
2017-04-10T03:48:01.592Z,21.18
2017-04-10T03:48:29.837Z,21.13
2017-04-10T03:48:58.140Z,21.16
2017-04-10T03:49:26.395Z,21.16
2017-04-10T03:49:54.627Z,21.12
2017-04-10T03:50:22.847Z,21.13
2017-04-10T03:50:51.010Z,21.19
2017-04-10T03:51:19.507Z,21.16
2017-04-10T03:51:47.699Z,21.13
2017-04-10T03:52:15.935Z,21.15
2017-04-10T03:52:44.182Z,21.19
2017-04-10T03:53:12.383Z,21.15
2017-04-10T03:53:40.628Z,21.15
2017-04-10T03:54:08.884Z,21.13
2017-04-10T03:54:36.915Z,21.18
2017-04-10T03:55:05.203Z,21.19
2017-04-10T03:55:33.425Z,21.13
2017-04-10T03:56:01.611Z,21.18
2017-04-10T03:56:29.735Z,21.12
2017-04-10T03:56:57.902Z,21.13
2017-04-10T03:57:26.140Z,21.13
2017-04-10T03:57:54.257Z,21.16
2017-04-10T03:58:22.510Z,21.12
2017-04-10T03:58:50.669Z,21.13
2017-04-10T03:59:19.600Z,21.16
2017-04-10T03:59:47.741Z,21.18
2017-04-10T04:00:15.956Z,21.15
2017-04-10T04:00:44.070Z,21.15
2017-04-10T04:01:12.318Z,21.12
2017-04-10T04:01:40.558Z,21.13
2017-04-10T04:02:08.826Z,21.15
2017-04-10T04:02:37.070Z,21.21
2017-04-10T04:03:05.281Z,21.15
2017-04-10T04:03:33.345Z,21.13
2017-04-10T04:04:01.648Z,21.15
2017-04-10T04:04:29.756Z,21.16
2017-04-10T04:04:57.881Z,21.11
2017-04-10T04:05:26.076Z,21.15
2017-04-10T04:05:54.252Z,21.18
2017-04-10T04:06:22.449Z,21.13
2017-04-10T04:06:50.696Z,21.13
2017-04-10T04:07:19.189Z,21.18
2017-04-10T04:07:47.341Z,21.15
2017-04-10T04:08:15.586Z,21.22
2017-04-10T04:08:43.799Z,21.16
2017-04-10T04:09:12.166Z,21.15
2017-04-10T04:09:40.186Z,21.15
2017-04-10T04:10:08.142Z,21.13
2017-04-10T04:10:36.313Z,21.18
2017-04-10T04:11:04.375Z,21.13
2017-04-10T04:11:32.413Z,21.21
2017-04-10T04:12:00.531Z,21.16
2017-04-10T04:12:28.949Z,21.13
2017-04-10T04:12:57.016Z,21.15
2017-04-10T04:13:25.179Z,21.15
2017-04-10T04:13:53.351Z,21.16
2017-04-10T04:14:21.487Z,21.15
2017-04-10T04:14:49.751Z,21.21
2017-04-10T04:15:18.075Z,21.21
2017-04-10T04:15:46.213Z,21.15
2017-04-10T04:16:14.471Z,21.15
2017-04-10T04:16:42.711Z,21.15
2017-04-10T04:17:10.950Z,21.16
2017-04-10T04:17:39.385Z,21.21
2017-04-10T04:18:07.617Z,21.22
2017-04-10T04:18:35.738Z,21.15
2017-04-10T04:19:03.803Z,21.15
2017-04-10T04:19:32.082Z,21.15
2017-04-10T04:20:00.345Z,21.16
2017-04-10T04:20:28.601Z,21.15
2017-04-10T04:20:56.769Z,21.11
2017-04-10T04:21:25.240Z,21.18
2017-04-10T04:21:53.450Z,21.15
2017-04-10T04:22:21.476Z,21.13
2017-04-10T04:22:49.613Z,21.13
2017-04-10T04:23:17.859Z,21.21
2017-04-10T04:23:46.128Z,21.18
2017-04-10T04:24:14.258Z,21.12
2017-04-10T04:24:42.414Z,21.12
2017-04-10T04:25:10.586Z,21.16
2017-04-10T04:25:39.028Z,21.15
2017-04-10T04:26:07.298Z,21.16
2017-04-10T04:26:35.506Z,21.16
2017-04-10T04:27:03.670Z,21.13
2017-04-10T04:27:32.002Z,21.08
2017-04-10T04:28:00.202Z,21.12
2017-04-10T04:28:28.558Z,21.08
2017-04-10T04:28:56.796Z,21.15
2017-04-10T04:29:24.931Z,21.08
2017-04-10T04:29:53.071Z,21.12
2017-04-10T04:30:21.560Z,21.11
2017-04-10T04:30:49.592Z,21.13
2017-04-10T04:31:17.662Z,21.06
2017-04-10T04:31:45.717Z,21.09
2017-04-10T04:32:13.840Z,20.98
2017-04-10T04:32:41.984Z,21.01
2017-04-10T04:33:10.100Z,21
2017-04-10T04:33:38.243Z,21.06
2017-04-10T04:34:06.709Z,21.04
2017-04-10T04:34:34.947Z,21.03
2017-04-10T04:35:03.238Z,20.98
2017-04-10T04:35:31.310Z,20.98
2017-04-10T04:35:59.578Z,21.06
2017-04-10T04:36:27.728Z,21.03
2017-04-10T04:36:55.965Z,20.98
2017-04-10T04:37:24.188Z,21.01
2017-04-10T04:37:52.325Z,21.06
2017-04-10T04:38:20.466Z,20.96
2017-04-10T04:38:48.592Z,21.08
2017-04-10T04:39:16.635Z,21.12
2017-04-10T04:39:44.703Z,21.09
2017-04-10T04:40:12.621Z,21.04
2017-04-10T04:40:40.895Z,21.08
2017-04-10T04:41:09.127Z,21.11
2017-04-10T04:41:37.408Z,21
2017-04-10T04:42:05.802Z,21.01
2017-04-10T04:42:34.128Z,20.98
2017-04-10T04:43:02.287Z,21
2017-04-10T04:43:30.536Z,21.09
2017-04-10T04:43:58.613Z,20.96
2017-04-10T04:44:26.561Z,21.06
2017-04-10T04:44:54.718Z,21.01
2017-04-10T04:45:22.880Z,21.01
2017-04-10T04:45:50.995Z,21.09
2017-04-10T04:46:19.229Z,21.03
2017-04-10T04:46:47.461Z,21.03
2017-04-10T04:47:15.625Z,21.03
2017-04-10T04:47:44.038Z,21
2017-04-10T04:48:12.175Z,20.98
2017-04-10T04:48:40.436Z,21.01
2017-04-10T04:49:08.472Z,21.06
2017-04-10T04:49:36.641Z,21.04
2017-04-10T04:50:04.876Z,21
2017-04-10T04:50:33.081Z,21
2017-04-10T04:51:01.209Z,21.03
2017-04-10T04:51:29.329Z,20.98
2017-04-10T04:51:57.447Z,21.01
2017-04-10T04:52:25.667Z,20.96
2017-04-10T04:52:53.972Z,20.85
2017-04-10T04:53:22.243Z,20.86
2017-04-10T04:53:50.427Z,20.86
2017-04-10T04:54:18.652Z,20.83
2017-04-10T04:54:46.715Z,20.81
2017-04-10T04:55:14.946Z,20.75
2017-04-10T04:55:43.184Z,20.78
2017-04-10T04:56:11.237Z,20.75
2017-04-10T04:56:39.240Z,20.72
2017-04-10T04:57:07.392Z,20.61
2017-04-10T04:57:35.564Z,20.67
2017-04-10T04:58:03.799Z,20.58
2017-04-10T04:58:31.941Z,20.6
2017-04-10T04:58:59.977Z,20.57
2017-04-10T04:59:28.310Z,20.54
2017-04-10T04:59:56.451Z,20.54
2017-04-10T05:00:24.596Z,20.61
2017-04-10T05:00:52.776Z,20.48
2017-04-10T05:01:21.037Z,20.42
2017-04-10T05:01:49.302Z,20.44
2017-04-10T05:02:17.547Z,20.48
2017-04-10T05:02:45.882Z,20.49
2017-04-10T05:03:14.055Z,20.49
2017-04-10T05:03:42.135Z,20.35
2017-04-10T05:04:10.374Z,20.3
2017-04-10T05:04:38.552Z,20.44
2017-04-10T05:05:06.802Z,20.46
2017-04-10T05:05:34.945Z,20.46
2017-04-10T05:06:03.091Z,20.49
2017-04-10T05:06:31.305Z,20.38
2017-04-10T05:06:59.473Z,20.4
2017-04-10T05:07:27.737Z,20.48
2017-04-10T05:07:55.871Z,20.3
2017-04-10T05:08:24.121Z,20.38
2017-04-10T05:08:52.235Z,20.4
2017-04-10T05:09:20.402Z,20.32
2017-04-10T05:09:48.659Z,20.34
2017-04-10T05:10:16.895Z,20.32
2017-04-10T05:10:45.135Z,20.38
2017-04-10T05:11:13.356Z,20.37
2017-04-10T05:11:41.656Z,20.41
2017-04-10T05:12:09.878Z,20.35
2017-04-10T05:12:37.954Z,20.35
2017-04-10T05:13:06.149Z,20.41
2017-04-10T05:13:34.253Z,20.32
2017-04-10T05:14:02.400Z,20.4
2017-04-10T05:14:30.334Z,20.34
2017-04-10T05:14:58.540Z,20.41
2017-04-10T05:15:26.753Z,20.37
2017-04-10T05:15:54.991Z,20.37
2017-04-10T05:16:23.382Z,20.49
2017-04-10T05:16:51.636Z,20.46
2017-04-10T05:17:19.872Z,20.44
2017-04-10T05:17:48.110Z,20.44
2017-04-10T05:18:16.336Z,20.53
2017-04-10T05:18:44.638Z,20.49
2017-04-10T05:19:12.911Z,20.53
2017-04-10T05:19:41.055Z,20.54
2017-04-10T05:20:09.082Z,20.46
2017-04-10T05:20:37.197Z,20.58
2017-04-10T05:21:05.463Z,20.49
2017-04-10T05:21:33.601Z,20.6
2017-04-10T05:22:01.836Z,20.54
2017-04-10T05:22:30.052Z,20.46
2017-04-10T05:22:58.351Z,20.58
2017-04-10T05:23:26.575Z,20.53
2017-04-10T05:23:54.820Z,20.58
2017-04-10T05:24:22.850Z,20.56
2017-04-10T05:24:51.146Z,20.63
2017-04-10T05:25:19.304Z,20.63
2017-04-10T05:25:47.548Z,20.61
2017-04-10T05:26:15.793Z,20.53
2017-04-10T05:26:43.934Z,20.63
2017-04-10T05:27:12.141Z,20.58
2017-04-10T05:27:40.288Z,20.56
2017-04-10T05:28:08.580Z,20.46
2017-04-10T05:28:36.643Z,20.58
2017-04-10T05:29:05.119Z,20.58
2017-04-10T05:29:33.375Z,20.6
2017-04-10T05:30:01.634Z,20.58
2017-04-10T05:30:29.750Z,20.58
2017-04-10T05:30:57.864Z,20.54
2017-04-10T05:31:26.109Z,20.54
2017-04-10T05:31:54.341Z,20.61
2017-04-10T05:32:22.609Z,20.57
2017-04-10T05:32:50.968Z,20.61
2017-04-10T05:33:19.224Z,20.58
2017-04-10T05:33:47.381Z,20.57
2017-04-10T05:34:15.570Z,20.58
2017-04-10T05:34:43.825Z,20.61
2017-04-10T05:35:11.946Z,20.58
2017-04-10T05:35:39.973Z,20.54
2017-04-10T05:36:08.096Z,20.56
2017-04-10T05:36:36.334Z,20.6
2017-04-10T05:37:04.538Z,20.61
2017-04-10T05:37:32.802Z,20.56
2017-04-10T05:38:01.355Z,20.58
2017-04-10T05:38:29.416Z,20.6
2017-04-10T05:38:57.681Z,20.64
2017-04-10T05:39:25.865Z,20.57
2017-04-10T05:39:54.161Z,20.67
2017-04-10T05:40:22.357Z,20.67
2017-04-10T05:40:50.522Z,20.66
2017-04-10T05:41:18.762Z,20.72
2017-04-10T05:41:46.975Z,20.66
2017-04-10T05:42:15.190Z,20.71
2017-04-10T05:42:43.341Z,20.71
2017-04-10T05:43:11.720Z,20.78
2017-04-10T05:43:39.815Z,20.76
2017-04-10T05:44:07.997Z,20.79
2017-04-10T05:44:36.056Z,20.75
2017-04-10T05:45:04.133Z,20.79
2017-04-10T05:45:32.360Z,20.79
2017-04-10T05:46:00.605Z,20.78
2017-04-10T05:46:28.730Z,20.78
2017-04-10T05:46:56.876Z,20.81
2017-04-10T05:47:25.034Z,20.82
2017-04-10T05:47:52.974Z,20.75
2017-04-10T05:48:21.198Z,20.82
2017-04-10T05:48:49.291Z,20.78
2017-04-10T05:49:17.545Z,20.81
2017-04-10T05:49:45.674Z,20.83
2017-04-10T05:50:13.912Z,20.79
2017-04-10T05:50:42.083Z,20.82
2017-04-10T05:51:10.369Z,20.83
2017-04-10T05:51:38.586Z,20.78
2017-04-10T05:52:06.817Z,20.78
2017-04-10T05:52:35.061Z,20.79
2017-04-10T05:53:03.311Z,20.79
2017-04-10T05:53:31.559Z,20.79
2017-04-10T05:53:59.792Z,20.74
2017-04-10T05:54:28.151Z,20.79
2017-04-10T05:54:56.409Z,20.76
2017-04-10T05:55:24.663Z,20.79
2017-04-10T05:55:52.904Z,20.74
2017-04-10T05:56:21.145Z,20.71
2017-04-10T05:56:49.265Z,20.66
2017-04-10T05:57:17.406Z,20.66
2017-04-10T05:57:45.641Z,20.72
2017-04-10T05:58:13.948Z,20.61
2017-04-10T05:58:42.166Z,20.54
2017-04-10T05:59:10.437Z,20.56
2017-04-10T05:59:38.484Z,20.6
2017-04-10T06:00:06.604Z,20.61
2017-04-10T06:00:34.719Z,20.6
2017-04-10T06:01:02.920Z,20.56
2017-04-10T06:01:31.204Z,20.56
2017-04-10T06:01:59.438Z,20.57
2017-04-10T06:02:27.731Z,20.44
2017-04-10T06:02:55.818Z,20.48
2017-04-10T06:03:24.042Z,20.48
2017-04-10T06:03:52.318Z,20.44
2017-04-10T06:04:20.509Z,20.46
2017-04-10T06:04:48.723Z,20.42
2017-04-10T06:05:16.856Z,20.35